Van Nuys Airport
KVNY : rendu visible

Aérodrome :











RETROUVEZ-NOUS SUR...

 
LOGIN :

S'inscrire | Disclaimer

   EN    FR    IT 

 









Légende :    VFR   VFR Marginal   IFR   IFR Intensif   IFR Très Intensif
Visi : 
Plafond : 
>= 8 km
>= 3000ft
5 à 8 km
1000 à 3000 ft
1500m à 5 km
500 à 1000 ft
800 à 1500m
200 à 500 ft
< 800m
< 200 ft
Symboles :   Orages  Brouillard  Fortes neiges  Fortes précipitations  Vent > 20 kt






- Altitude de l'aérodrome : 802 ft


KVNY - Van Nuys

DERNIER METAR :
  • 142151Z 18004KT 7SM CLR 35/11 A3004 RMK AO2 SLP162 T03500106

METARs EXPIRÉS :
  • 142051Z 09005KT 4SM HZ SCT200 29/12 A3005 RMK AO2 SLP168 T02890117 58020
  • 142003Z 11004KT 5SM HZ CLR 29/09 A3007 RMK AO2 T02940094
  • 141951Z 15003KT 5SM HZ CLR 31/09 A3007 RMK AO2 SLP175 T03110094

TAF KVNY
Valide du 14 à 21h jusqu'au 15 à 18h UTC


142119Z 1421/1518 09005KT 4SM HZ SCT200
FM150200 VRB03KT P6SM BKN200
FM150900 VRB03KT 3SM BR OVC010



MET'MAP, la Météo Aéronautique d'un coup d'oeil ! - Copyright ORBIFLY Décembre 2007 - Disclaimer

ORBIFLY MET'MAP TEAM :

Programmation & Développement : Alexandra Zaïnal
Conception & Développement : Baudouin d'Aumeries
Co-Programmation & Développement : Marc-Olivier Méhu
Soutien technique & logistique : Manuel Goepfert

Contact : metmap@orbifly.com




SOURCES & CREDITS :

   NOAA       Earth
Advisory